Time;durP1;ratioP1;P1;durP2;ratioP2;P2;SDS_P1;SDS_P2;PMS_P1;PMS_P2;Temp;Humidity;BMP_temperature;BMP_pressure;BME280_temperature;BME280_humidity;BME280_pressure;Samples;Min_cycle;Max_cycle;Signal;HPM_P1;HPM_P2
2023/04/25 04:12:46;;;;;;;7.22;5.12;;;;;;;9.52;100.00;99183.94;5573226;31;1050952;-87
2023/04/25 04:15:57;;;;;;;10.30;5.37;;;;;;;9.52;100.00;99183.94;5591852;31;33699;-90
2023/04/25 04:19:06;;;;;;;7.75;4.95;;;;;;;9.06;100.00;99192.13;5585239;31;35034;-89
2023/04/25 04:22:14;;;;;;;5.37;4.87;;;;;;;9.07;100.00;99200.00;5583324;31;34319;-87
2023/04/25 04:25:20;;;;;;;5.53;4.85;;;;;;;8.97;100.00;99191.78;5582858;31;33866;-87
2023/04/25 04:28:36;;;;;;;5.12;4.62;;;;;;;8.99;100.00;99203.09;5582598;32;33861;-87
2023/04/25 04:31:42;;;;;;;5.90;5.30;;;;;;;9.07;100.00;99191.19;5583671;31;34140;-87
2023/04/25 04:34:48;;;;;;;5.60;5.10;;;;;;;9.01;100.00;99195.06;5583969;31;33750;-87
2023/04/25 04:37:57;;;;;;;5.30;4.80;;;;;;;8.91;100.00;99192.16;5583283;31;33737;-87
2023/04/25 04:41:08;;;;;;;5.82;5.32;;;;;;;8.92;100.00;99199.13;5583414;32;33537;-87
2023/04/25 04:44:16;;;;;;;5.87;4.78;;;;;;;9.04;100.00;99202.81;5582987;31;34267;-87
2023/04/25 04:47:23;;;;;;;5.43;4.60;;;;;;;9.06;100.00;99195.66;5583166;32;34024;-87
2023/04/25 04:50:32;;;;;;;7.75;4.87;;;;;;;9.06;100.00;99203.59;5584271;31;34289;-87
2023/04/25 04:53:41;;;;;;;5.32;4.82;;;;;;;8.97;100.00;99201.50;5597346;32;33555;-87
2023/04/25 04:56:50;;;;;;;5.03;4.53;;;;;;;8.95;100.00;99200.75;5598606;32;34176;-87
2023/04/25 04:59:57;;;;;;;5.70;4.32;;;;;;;9.01;100.00;99200.37;5583933;32;34010;-87
2023/04/25 05:03:05;;;;;;;5.15;4.65;;;;;;;9.02;100.00;99204.72;5583193;32;33703;-87
2023/04/25 05:06:12;;;;;;;5.93;4.55;;;;;;;9.03;100.00;99199.34;5582955;31;33989;-87
2023/04/25 05:09:25;;;;;;;5.90;4.68;;;;;;;8.84;100.00;99210.19;5583283;31;34279;-87
2023/04/25 05:12:35;;;;;;;7.55;5.45;;;;;;;8.81;100.00;99206.88;5582871;32;33781;-88
2023/04/25 05:15:41;;;;;;;5.60;4.97;;;;;;;8.75;100.00;99213.41;5584409;32;34841;-88
2023/04/25 05:18:50;;;;;;;5.12;4.62;;;;;;;8.73;100.00;99210.84;5590294;32;34930;-91
2023/04/25 05:21:58;;;;;;;6.10;5.28;;;;;;;8.75;100.00;99216.06;5588493;31;34020;-88
2023/04/25 05:25:06;;;;;;;7.37;5.32;;;;;;;8.71;100.00;99222.47;5580787;32;34013;-86
2023/04/25 05:28:14;;;;;;;6.57;5.40;;;;;;;8.86;100.00;99215.37;5575847;32;34957;-87
2023/04/25 05:31:22;;;;;;;7.47;5.32;;;;;;;8.77;100.00;99214.16;5560463;32;34101;-86
2023/04/25 05:34:29;;;;;;;6.03;5.07;;;;;;;8.76;100.00;99213.28;5563849;32;34171;-87
2023/04/25 05:37:37;;;;;;;5.72;5.12;;;;;;;8.61;100.00;99216.87;5550925;32;35110;-87
2023/04/25 05:40:47;;;;;;;5.82;5.22;;;;;;;8.45;100.00;99212.47;5553674;32;33438;-86
2023/04/25 05:43:56;;;;;;;6.15;5.28;;;;;;;8.31;100.00;99215.91;5559362;32;33913;-86
2023/04/25 05:47:05;;;;;;;6.25;5.55;;;;;;;8.31;100.00;99220.38;5554614;32;33931;-87
2023/04/25 05:50:17;;;;;;;10.18;6.05;;;;;;;8.26;100.00;99220.66;5564148;32;33312;-86
2023/04/25 06:31:32;;;;;;;11.52;8.80;;;;;;;8.31;100.00;99229.13;5537230;32;183857;-85
2023/04/25 06:34:39;;;;;;;11.88;7.70;;;;;;;8.60;100.00;99242.44;5525268;32;34340;-84
2023/04/25 06:37:43;;;;;;;9.65;7.25;;;;;;;8.87;100.00;99239.09;5533003;32;33958;-84
2023/04/25 06:40:47;;;;;;;10.77;7.53;;;;;;;9.01;100.00;99240.03;5529931;32;34675;-86
2023/04/25 06:43:51;;;;;;;9.98;7.95;;;;;;;8.90;100.00;99233.59;5530858;32;35074;-83
2023/04/25 06:47:00;;;;;;;9.00;7.37;;;;;;;8.65;100.00;99238.69;5529892;32;33969;-85
2023/04/25 06:50:05;;;;;;;9.02;7.30;;;;;;;8.83;100.00;99242.88;5526891;32;33466;-85
2023/04/25 06:53:11;;;;;;;9.55;7.32;;;;;;;8.84;100.00;99236.63;5530570;32;34479;-86
2023/04/25 06:56:16;;;;;;;8.02;7.22;;;;;;;9.04;100.00;99237.19;5533790;32;34499;-83
2023/04/25 06:59:20;;;;;;;8.77;7.30;;;;;;;9.13;100.00;99238.44;5530189;32;33877;-85
2023/04/25 07:02:26;;;;;;;10.25;6.95;;;;;;;9.10;100.00;99234.16;5522298;32;34851;-84
2023/04/25 07:05:29;;;;;;;10.75;7.10;;;;;;;9.53;100.00;99230.63;5530257;32;33556;-82
2023/04/25 07:08:37;;;;;;;7.43;6.72;;;;;;;9.47;100.00;99238.09;5530465;32;33445;-82
2023/04/25 07:11:44;;;;;;;7.50;6.70;;;;;;;9.78;100.00;99239.66;5530320;32;34871;-82
2023/04/25 07:14:50;;;;;;;8.80;7.28;;;;;;;9.92;100.00;99233.44;5518593;32;34118;-83
2023/04/25 07:17:53;;;;;;;8.52;6.87;;;;;;;9.61;100.00;99235.41;5530521;32;33572;-82
2023/04/25 07:20:58;;;;;;;7.45;6.62;;;;;;;10.38;100.00;99236.66;5532944;32;33854;-83
2023/04/25 07:24:04;;;;;;;7.72;6.47;;;;;;;10.48;100.00;99239.56;5531073;32;34651;-81
2023/04/25 07:27:09;;;;;;;7.18;6.45;;;;;;;10.65;100.00;99241.06;5529580;32;33866;-83
2023/04/25 07:30:14;;;;;;;8.57;6.32;;;;;;;11.00;100.00;99248.38;5542133;32;33722;-87
2023/04/25 07:33:20;;;;;;;15.13;5.75;;;;;;;11.37;100.00;99241.44;5551699;32;34292;-85
2023/04/25 07:36:26;;;;;;;8.80;6.22;;;;;;;12.15;100.00;99236.72;5547799;32;33681;-83
2023/04/25 07:39:31;;;;;;;7.15;5.68;;;;;;;12.77;100.00;99241.88;5547210;32;35111;-84
2023/04/25 07:42:39;;;;;;;5.60;4.95;;;;;;;12.66;100.00;99243.53;5533181;32;34110;-83
2023/04/25 07:45:45;;;;;;;8.98;5.70;;;;;;;12.39;100.00;99243.81;5532463;32;33669;-84
2023/04/25 07:48:51;;;;;;;6.57;5.65;;;;;;;12.23;100.00;99244.13;5531478;32;33766;-85
2023/04/25 07:51:57;;;;;;;10.70;6.55;;;;;;;12.19;100.00;99251.50;5530927;32;34002;-85
2023/04/25 07:55:01;;;;;;;6.95;5.82;;;;;;;12.92;100.00;99253.97;5530940;32;34044;-85
2023/04/25 07:58:08;;;;;;;9.15;4.93;;;;;;;12.05;100.00;99249.00;5531495;32;33379;-83
2023/04/25 08:01:13;;;;;;;5.32;4.82;;;;;;;13.04;100.00;99249.50;5530407;32;33544;-82
2023/04/25 08:04:18;;;;;;;10.98;4.70;;;;;;;13.87;100.00;99248.34;5531095;32;33472;-83
2023/04/25 08:07:25;;;;;;;5.37;4.40;;;;;;;14.16;100.00;99245.13;5536426;32;34665;-84
2023/04/25 08:10:30;;;;;;;5.53;4.62;;;;;;;13.62;100.00;99242.34;5528946;32;34103;-86
2023/04/25 08:13:33;;;;;;;9.57;4.75;;;;;;;13.88;100.00;99247.37;5533175;32;33465;-84
2023/04/25 08:16:36;;;;;;;9.10;4.03;;;;;;;14.59;100.00;99242.50;5530586;32;33911;-86
2023/04/25 08:19:40;;;;;;;6.40;4.18;;;;;;;15.53;100.00;99249.56;5535938;32;33771;-83
2023/04/25 08:22:45;;;;;;;5.55;4.30;;;;;;;15.21;100.00;99258.59;5533799;32;33798;-81
2023/04/25 08:25:52;;;;;;;5.25;3.53;;;;;;;15.05;100.00;99249.22;5535012;32;34208;-83
2023/04/25 08:28:57;;;;;;;3.62;3.33;;;;;;;14.85;100.00;99252.78;5534799;32;34772;-83
2023/04/25 08:32:00;;;;;;;4.28;3.50;;;;;;;14.07;100.00;99253.91;5537405;32;34160;-83
2023/04/25 08:35:05;;;;;;;4.20;3.50;;;;;;;14.21;100.00;99264.25;5539664;32;33897;-81
2023/04/25 08:38:08;;;;;;;5.35;3.55;;;;;;;14.22;100.00;99243.75;5538308;32;35074;-81
2023/04/25 08:41:15;;;;;;;3.72;3.15;;;;;;;14.11;100.00;99252.66;5526568;32;34259;-84
2023/04/25 08:44:20;;;;;;;4.30;3.33;;;;;;;14.56;100.00;99251.59;5525382;32;34032;-84
2023/04/25 08:47:30;;;;;;;3.80;3.37;;;;;;;14.43;100.00;99262.44;5522149;32;34124;-84
2023/04/25 08:50:35;;;;;;;5.20;3.22;;;;;;;14.27;100.00;99269.06;5534135;32;33965;-84
2023/04/25 08:53:42;;;;;;;6.82;3.40;;;;;;;14.25;100.00;99271.03;5538540;32;34024;-84
2023/04/25 08:56:49;;;;;;;4.70;4.12;;;;;;;14.41;100.00;99277.75;5535926;32;35110;-83
2023/04/25 08:59:52;;;;;;;6.07;3.95;;;;;;;14.40;100.00;99271.56;5520708;32;33743;-87
2023/04/25 09:02:58;;;;;;;6.57;4.50;;;;;;;14.40;100.00;99276.87;5534402;32;34414;-87
2023/04/25 09:06:05;;;;;;;4.80;4.40;;;;;;;14.29;100.00;99277.78;5534534;32;33571;-84
2023/04/25 09:09:10;;;;;;;8.32;4.22;;;;;;;13.78;100.00;99273.94;5523797;32;33533;-84
2023/04/25 09:12:19;;;;;;;5.82;3.80;;;;;;;14.23;100.00;99277.47;5526154;32;33767;-84
2023/04/25 09:15:25;;;;;;;5.72;3.53;;;;;;;15.08;100.00;99281.03;5532687;32;33870;-84
2023/04/25 09:18:33;;;;;;;6.90;3.92;;;;;;;15.14;100.00;99278.81;5531122;32;33874;-83
2023/04/25 09:21:38;;;;;;;4.60;3.90;;;;;;;15.31;100.00;99280.88;5528074;32;33842;-83
2023/04/25 09:24:50;;;;;;;4.90;4.50;;;;;;;15.34;96.40;99287.78;5526139;32;33838;-83
2023/04/25 09:28:06;;;;;;;4.55;4.05;;;;;;;15.25;97.90;99278.72;5532626;32;34974;-83
2023/04/25 09:31:22;;;;;;;6.03;3.80;;;;;;;15.83;96.27;99277.22;5516934;32;34864;-83
2023/04/25 09:34:27;;;;;;;3.70;3.37;;;;;;;15.01;93.76;99285.22;5529540;32;33684;-83
2023/04/25 09:37:34;;;;;;;3.70;3.40;;;;;;;14.93;95.74;99272.50;5524324;32;34326;-82
2023/04/25 09:40:47;;;;;;;3.95;3.55;;;;;;;14.52;97.53;99264.34;5530537;32;34027;-84
2023/04/25 09:43:57;;;;;;;3.28;2.97;;;;;;;15.84;91.23;99268.22;5536252;32;33998;-84
2023/04/25 09:47:11;;;;;;;3.10;2.80;;;;;;;16.41;83.13;99275.59;5535868;32;33877;-84
2023/04/25 09:50:20;;;;;;;4.10;3.00;;;;;;;16.34;82.44;99274.47;5530067;32;33625;-84
2023/04/25 09:53:25;;;;;;;9.43;3.10;;;;;;;16.13;86.80;99275.47;5527607;32;35830;-84
2023/04/25 09:56:37;;;;;;;4.25;2.70;;;;;;;15.28;88.26;99272.28;5526843;32;33859;-83
2023/04/25 09:59:48;;;;;;;;;;;;;;;15.59;86.85;99280.28;5533098;32;33555;-88
2023/04/25 10:02:57;;;;;;;2.58;2.40;;;;;;;16.30;80.69;99278.44;5522639;32;34088;-85
2023/04/25 10:06:08;;;;;;;2.17;1.98;;;;;;;16.05;80.80;99272.66;5524793;32;34458;-85
2023/04/25 10:09:12;;;;;;;3.78;2.30;;;;;;;16.07;78.09;99286.72;5528945;32;34923;-85
2023/04/25 10:12:19;;;;;;;2.80;2.30;;;;;;;16.01;82.54;99263.22;5528387;32;33498;-86
2023/04/25 10:15:23;;;;;;;2.22;2.00;;;;;;;15.46;84.45;99267.13;5519410;32;33881;-85
2023/04/25 10:18:28;;;;;;;2.95;2.17;;;;;;;15.35;84.67;99279.59;5525152;32;33136;-85
2023/04/25 10:21:33;;;;;;;2.65;2.40;;;;;;;14.29;88.25;99275.13;5535370;32;34624;-85
2023/04/25 10:24:38;;;;;;;3.28;2.00;;;;;;;14.61;87.27;99269.87;5529909;32;33518;-86
2023/04/25 10:27:41;;;;;;;3.15;2.28;;;;;;;14.73;86.33;99273.34;5526110;32;33945;-87
2023/04/25 10:30:58;;;;;;;4.47;3.08;;;;;;;13.81;87.78;99268.38;5529675;32;34098;-86
2023/04/25 10:34:05;;;;;;;1.60;1.50;;;;;;;13.81;88.60;99265.72;5521117;32;34409;-87
2023/04/25 10:37:10;;;;;;;1.70;1.60;;;;;;;14.25;87.05;99262.19;5531481;32;34108;-86
2023/04/25 10:40:22;;;;;;;2.47;1.80;;;;;;;14.26;89.54;99267.38;5525357;32;33856;-85
2023/04/25 10:43:31;;;;;;;1.90;1.80;;;;;;;14.34;91.27;99260.56;5517888;32;33977;-86
2023/04/25 10:46:35;;;;;;;4.18;1.80;;;;;;;14.75;85.92;99266.94;5527873;32;34147;-85
2023/04/25 10:49:43;;;;;;;2.45;1.90;;;;;;;14.64;86.56;99272.31;5523998;32;34726;-86
2023/04/25 10:52:46;;;;;;;1.60;1.50;;;;;;;14.74;87.67;99277.72;5521045;32;34290;-86
2023/04/25 10:55:51;;;;;;;1.48;1.37;;;;;;;15.40;83.67;99279.22;5523650;32;34168;-85
2023/04/25 10:59:10;;;;;;;1.00;1.00;;;;;;;15.68;78.29;99274.09;5520635;32;33846;-86
2023/04/25 11:02:13;;;;;;;0.90;0.90;;;;;;;15.84;75.77;99267.38;5521506;32;33827;-86
2023/04/25 11:05:31;;;;;;;0.62;0.62;;;;;;;16.04;76.59;99287.00;5533893;32;33443;-86
2023/04/25 11:08:48;;;;;;;1.02;0.93;;;;;;;16.24;70.86;99290.53;5525978;32;34371;-87
2023/04/25 11:11:55;;;;;;;0.80;0.80;;;;;;;16.71;73.32;99289.81;5545502;26;34688;-87
2023/04/25 11:15:04;;;;;;;0.60;0.60;;;;;;;16.48;71.76;99296.44;5509187;32;34247;-87
2023/04/25 11:18:08;;;;;;;0.68;0.60;;;;;;;16.12;72.05;99292.50;5504996;32;33772;-86
2023/04/25 11:21:13;;;;;;;0.82;0.70;;;;;;;16.35;70.82;99297.56;5497235;32;34396;-86
2023/04/25 11:24:17;;;;;;;1.17;0.70;;;;;;;16.62;68.59;99311.25;5504635;32;33974;-86
2023/04/25 11:27:22;;;;;;;1.77;1.50;;;;;;;16.38;69.40;99309.84;5505656;32;33899;-87
2023/04/25 11:30:28;;;;;;;1.42;1.10;;;;;;;16.71;70.36;99313.09;5505020;32;33612;-86
2023/04/25 11:33:32;;;;;;;1.87;1.60;;;;;;;16.00;71.52;99310.50;5508124;32;33450;-86
2023/04/25 11:36:38;;;;;;;1.92;1.30;;;;;;;15.99;71.63;99303.47;5507772;32;35129;-86
2023/04/25 11:39:45;;;;;;;1.67;1.27;;;;;;;16.78;68.27;99300.81;5508544;32;34508;-87
2023/04/25 11:42:49;;;;;;;1.85;1.20;;;;;;;16.79;70.89;99309.72;5511468;32;33530;-86
2023/04/25 11:45:58;;;;;;;1.00;0.90;;;;;;;16.21;71.48;99309.56;5509919;32;33539;-86
2023/04/25 11:49:04;;;;;;;0.70;0.68;;;;;;;16.22;68.46;99307.72;5510549;32;33553;-87
2023/04/25 11:52:09;;;;;;;0.88;0.80;;;;;;;15.66;69.12;99321.50;5506855;32;33763;-87
2023/04/25 11:55:16;;;;;;;1.33;0.88;;;;;;;15.66;74.12;99317.97;5506615;32;35578;-86
2023/04/25 11:58:20;;;;;;;1.05;0.82;;;;;;;14.88;72.46;99319.28;5502848;32;33334;-86
2023/04/25 12:01:34;;;;;;;0.70;0.70;;;;;;;14.93;72.37;99315.22;5505984;32;34322;-85
2023/04/25 12:04:41;;;;;;;1.65;0.80;;;;;;;14.98;70.41;99325.50;5511961;32;33577;-87
2023/04/25 12:08:15;;;;;;;0.85;0.70;;;;;;;14.89;68.18;99335.16;5508508;32;34678;-86
2023/04/25 12:11:22;;;;;;;1.42;0.80;;;;;;;14.79;70.46;99331.59;5505535;32;34078;-88
2023/04/25 12:14:29;;;;;;;0.98;0.98;;;;;;;14.69;69.52;99332.31;5508358;32;34604;-88
2023/04/25 12:17:34;;;;;;;0.98;0.98;;;;;;;14.59;75.57;99341.22;5510633;32;34480;-87
2023/04/25 12:20:42;;;;;;;2.42;1.20;;;;;;;14.07;75.82;99333.88;5505071;32;33854;-88
2023/04/25 12:23:48;;;;;;;1.10;1.10;;;;;;;14.71;74.61;99321.53;5518230;32;34057;-88
2023/04/25 12:27:00;;;;;;;1.20;1.10;;;;;;;15.59;73.92;99334.56;5515427;32;35292;-88
2023/04/25 12:30:06;;;;;;;1.90;1.02;;;;;;;15.88;70.12;99320.44;5505818;32;33998;-87
2023/04/25 12:33:13;;;;;;;1.75;1.10;;;;;;;16.46;67.97;99323.37;5507340;32;34446;-87
2023/04/25 12:36:17;;;;;;;3.20;1.00;;;;;;;16.80;67.52;99311.38;5506126;32;33823;-87
2023/04/25 12:39:23;;;;;;;1.10;1.10;;;;;;;17.37;66.38;99321.28;5509870;32;33773;-87
2023/04/25 12:42:26;;;;;;;2.47;1.12;;;;;;;17.09;58.19;99310.50;5502085;32;33789;-87
2023/04/25 12:45:29;;;;;;;0.93;0.93;;;;;;;17.14;57.93;99296.69;5508823;32;33741;-87
2023/04/25 12:48:33;;;;;;;2.03;1.30;;;;;;;16.14;58.62;99308.44;5504024;32;33921;-87
2023/04/25 12:51:37;;;;;;;1.15;1.10;;;;;;;15.56;59.95;99310.78;5510858;32;34038;-88
2023/04/25 12:54:42;;;;;;;0.93;0.93;;;;;;;15.96;57.60;99295.72;5510425;32;35954;-86
2023/04/25 12:57:46;;;;;;;2.37;1.02;;;;;;;16.07;56.34;99299.25;5510002;32;34064;-85
2023/04/25 13:00:50;;;;;;;1.30;1.20;;;;;;;16.35;56.22;99286.03;5511739;32;33652;-85
2023/04/25 13:03:55;;;;;;;1.40;1.30;;;;;;;16.06;55.66;99294.88;5513959;32;34558;-84
2023/04/25 13:06:59;;;;;;;1.20;1.20;;;;;;;15.90;55.60;99298.91;5512957;32;34135;-85
2023/04/25 13:10:06;;;;;;;2.75;1.42;;;;;;;15.94;55.32;99291.50;5513535;32;33804;-86
2023/04/25 13:13:12;;;;;;;1.25;1.20;;;;;;;16.19;54.96;99292.78;5495090;32;34085;-86
2023/04/25 13:16:21;;;;;;;1.60;1.50;;;;;;;15.85;52.85;99291.28;5509802;32;35061;-87
2023/04/25 13:19:27;;;;;;;2.37;1.55;;;;;;;16.15;51.76;99292.22;5510168;32;33571;-87
2023/04/25 13:22:32;;;;;;;1.55;1.45;;;;;;;16.25;50.63;99294.91;5494677;32;34103;-87
2023/04/25 13:25:38;;;;;;;1.60;1.37;;;;;;;16.35;51.34;99286.03;5512446;32;33421;-86
2023/04/25 13:28:43;;;;;;;2.22;1.40;;;;;;;16.06;52.58;99286.84;5509542;32;34125;-87
2023/04/25 13:31:49;;;;;;;2.45;1.60;;;;;;;16.37;48.82;99279.56;5496291;32;33718;-87
2023/04/25 13:34:54;;;;;;;3.45;1.70;;;;;;;16.20;47.86;99278.44;5510559;32;34348;-91
2023/04/25 13:37:58;;;;;;;2.45;1.60;;;;;;;15.74;49.63;99262.84;5511314;32;34295;-90
2023/04/25 13:41:03;;;;;;;1.87;1.30;;;;;;;15.46;47.24;99285.84;5516609;32;34078;-88
2023/04/25 13:44:07;;;;;;;2.35;1.52;;;;;;;15.34;46.48;99285.09;5521399;32;33860;-87
2023/04/25 13:47:11;;;;;;;1.83;1.62;;;;;;;15.47;47.41;99295.53;5521624;32;35078;-88
2023/04/25 13:50:17;;;;;;;2.12;1.40;;;;;;;15.13;46.59;99275.28;5521017;32;34578;-87
2023/04/25 13:53:23;;;;;;;1.50;1.40;;;;;;;15.14;47.95;99276.97;5509808;32;33836;-86
2023/04/25 13:56:30;;;;;;;3.20;1.50;;;;;;;15.36;47.52;99275.13;5505344;32;33762;-86
2023/04/25 13:59:36;;;;;;;1.75;1.60;;;;;;;15.58;46.15;99279.41;5508086;32;33812;-87
2023/04/25 14:02:44;;;;;;;2.37;1.92;;;;;;;15.55;47.46;99269.00;5509549;32;33626;-87
2023/04/25 14:05:57;;;;;;;1.60;1.48;;;;;;;15.63;46.90;99274.50;5509334;32;35281;-87
2023/04/25 14:09:06;;;;;;;1.52;1.42;;;;;;;15.73;48.63;99282.56;5507185;32;33818;-87
2023/04/25 14:12:14;;;;;;;1.52;1.42;;;;;;;15.96;46.87;99278.81;5504516;32;33804;-86
2023/04/25 14:15:25;;;;;;;2.45;1.83;;;;;;;15.83;48.09;99277.22;5509382;32;33692;-88
2023/04/25 14:18:33;;;;;;;7.62;1.60;;;;;;;15.61;46.39;99273.81;5508688;32;33759;-87
2023/04/25 14:21:39;;;;;;;2.00;1.55;;;;;;;15.39;47.15;99279.34;5509477;32;34827;-88
2023/04/25 14:24:48;;;;;;;1.70;1.60;;;;;;;15.75;47.63;99272.56;5512308;32;33697;-88
2023/04/25 14:27:53;;;;;;;3.10;1.70;;;;;;;15.87;47.45;99273.31;5508591;32;33766;-87
2023/04/25 14:31:00;;;;;;;3.67;1.77;;;;;;;15.65;47.30;99271.72;5506456;32;34171;-87
2023/04/25 14:34:07;;;;;;;1.60;1.50;;;;;;;15.47;47.30;99280.38;5508416;32;34662;-88
2023/04/25 14:37:14;;;;;;;1.70;1.60;;;;;;;15.55;46.70;99278.84;5507537;32;34080;-87
2023/04/25 14:40:22;;;;;;;2.92;1.80;;;;;;;15.68;47.06;99287.44;5508527;32;33335;-87
2023/04/25 14:43:30;;;;;;;3.60;1.60;;;;;;;15.54;46.39;99277.97;5506092;32;33882;-87
2023/04/25 14:46:38;;;;;;;1.70;1.50;;;;;;;15.40;47.58;99268.53;5508099;32;33631;-91
2023/04/25 14:49:53;;;;;;;1.73;1.62;;;;;;;15.38;46.85;99275.00;5505766;32;34171;-91
2023/04/25 14:53:01;;;;;;;2.20;2.00;;;;;;;15.21;46.17;99278.16;5510654;32;33908;-87
2023/04/25 14:56:08;;;;;;;2.17;1.67;;;;;;;14.75;47.85;99271.41;5508483;32;33828;-87
2023/04/25 14:59:14;;;;;;;2.55;1.70;;;;;;;14.79;49.61;99267.53;5506941;32;33388;-87
2023/04/25 15:02:21;;;;;;;1.55;1.37;;;;;;;14.89;48.75;99283.59;5507223;32;33692;-87
2023/04/25 15:05:26;;;;;;;1.52;1.42;;;;;;;14.73;47.46;99268.84;5498004;32;34782;-87
2023/04/25 15:08:33;;;;;;;2.10;1.90;;;;;;;14.64;48.75;99269.63;5511584;32;33917;-87
2023/04/25 15:11:39;;;;;;;1.85;1.70;;;;;;;14.62;48.47;99279.56;5508679;32;34568;-87
2023/04/25 15:14:44;;;;;;;2.15;2.00;;;;;;;14.57;49.93;99279.97;5506907;32;33812;-87
2023/04/25 15:17:49;;;;;;;2.53;1.85;;;;;;;14.84;48.46;99275.13;5510888;32;33900;-87
2023/04/25 15:21:04;;;;;;;1.80;1.70;;;;;;;14.85;51.13;99282.16;5516366;32;33619;-86
2023/04/25 15:24:10;;;;;;;1.95;1.85;;;;;;;14.77;49.57;99286.34;5516689;32;34884;-86
2023/04/25 15:27:19;;;;;;;1.98;1.77;;;;;;;14.69;48.65;99278.09;5519720;32;33954;-86
2023/04/25 15:30:28;;;;;;;2.03;1.85;;;;;;;14.58;47.28;99287.00;5519335;32;34906;-87
2023/04/25 15:33:37;;;;;;;2.30;2.00;;;;;;;14.77;47.75;99274.78;5510856;32;34488;-86
2023/04/25 15:36:45;;;;;;;2.45;2.03;;;;;;;14.64;50.76;99280.31;5511268;32;34165;-86
2023/04/25 15:40:06;;;;;;;2.40;2.20;;;;;;;14.77;48.56;99281.00;5510394;32;33869;-86
